Terminal Aerodrome Forecast
Issued by NWS

Home | Current Version | Previous Version | Graphics & Text | Print | Product List | Glossary On
Versions: 1 2 3 4 5 6 7 8 9 10 11 12 13 14 15 16 17 18 19 20 21 22
570
FTUS43 KBIS 302321
TAFJMS
TAF
KJMS 302321Z 0100/0124 33012G20KT 5SM -SN BR SCT007 BKN015 OVC025
      TEMPO 0100/0103 2SM -SN BR BKN007 OVC015
     FM010300 33010KT P6SM -SN OVC010
      TEMPO 0103/0106 2SM -FZDZ BR OVC008
     FM010900 34009KT P6SM OVC008
     FM011200 34008KT P6SM OVC003
     FM011500 34008KT P6SM OVC008
     FM011800 34008KT P6SM OVC010=

USA.gov is the U.S. government's official web portal to all federal, state and local government web resources and services.